createdAt,value
2023-03-31T00:01:37.013Z,91.37
2023-03-31T00:04:04.958Z,91.43
2023-03-31T00:06:48.766Z,91.56
2023-03-31T00:09:18.981Z,91.75
2023-03-31T00:11:46.308Z,91.84
2023-03-31T00:14:15.866Z,92.02
2023-03-31T00:16:42.594Z,92.38
2023-03-31T00:19:18.958Z,92.34
2023-03-31T00:21:47.760Z,91.20
2023-03-31T00:24:16.159Z,92.08
2023-03-31T00:26:42.719Z,91.87
2023-03-31T00:29:10.291Z,92.26
2023-03-31T00:31:38.790Z,92.31
2023-03-31T00:34:05.971Z,92.46
2023-03-31T00:36:36.470Z,92.39
2023-03-31T00:39:09.392Z,92.40
2023-03-31T00:41:39.100Z,92.71
2023-03-31T00:44:19.225Z,92.60
2023-03-31T00:46:54.285Z,92.88
2023-03-31T00:49:33.027Z,93.13
2023-03-31T00:52:14.860Z,92.79
2023-03-31T00:54:47.350Z,92.99
2023-03-31T00:57:16.230Z,93.47
2023-03-31T00:59:58.791Z,93.45
2023-03-31T01:02:30.138Z,93.14
2023-03-31T01:05:02.470Z,92.71
2023-03-31T01:10:05.298Z,93.71
2023-03-31T01:12:38.442Z,93.36
2023-03-31T01:15:06.408Z,93.99
2023-03-31T01:17:46.285Z,93.07
2023-03-31T01:20:48.913Z,92.84
2023-03-31T01:23:18.660Z,92.88
2023-03-31T01:31:23.947Z,93.32
2023-03-31T01:34:16.564Z,93.25
2023-03-31T01:37:04.233Z,93.04
2023-03-31T01:39:42.947Z,93.22
2023-03-31T01:42:15.486Z,93.54
2023-03-31T01:45:00.335Z,93.56
2023-03-31T01:47:44.459Z,93.76
2023-03-31T01:50:33.647Z,93.39
2023-03-31T01:53:15.221Z,93.38
2023-03-31T01:56:00.784Z,93.51
2023-03-31T01:58:40.458Z,93.04
2023-03-31T02:01:19.587Z,92.54
2023-03-31T02:03:57.256Z,92.35
2023-03-31T02:06:33.559Z,92.70
2023-03-31T02:12:01.103Z,91.97
2023-03-31T02:14:34.688Z,91.97
2023-03-31T02:17:08.727Z,92.23
2023-03-31T02:19:40.131Z,92.03
2023-03-31T02:22:09.096Z,91.99
2023-03-31T02:24:41.443Z,91.89
2023-03-31T02:27:32.007Z,91.92
2023-03-31T02:30:02.214Z,92.87
2023-03-31T02:32:41.065Z,93.88
2023-03-31T02:35:12.259Z,94.77
2023-03-31T02:37:40.956Z,94.86
2023-03-31T02:40:12.778Z,95.47
2023-03-31T02:42:41.172Z,95.96
2023-03-31T02:45:44.616Z,95.71
2023-03-31T02:52:24.490Z,97.03
2023-03-31T02:55:09.083Z,97.13
2023-03-31T02:57:56.729Z,97.85
2023-03-31T03:00:44.078Z,97.91
2023-03-31T03:03:28.216Z,98.36
2023-03-31T03:06:19.330Z,99.04
2023-03-31T03:09:04.969Z,99.23
2023-03-31T03:11:47.410Z,99.47
2023-03-31T03:14:37.059Z,99.52
2023-03-31T03:17:17.452Z,100.00
2023-03-31T03:19:44.522Z,99.77
2023-03-31T03:22:14.181Z,100.00
2023-03-31T03:24:46.300Z,100.00
2023-03-31T03:27:13.526Z,100.00
2023-03-31T03:29:41.882Z,100.00
2023-03-31T03:32:12.804Z,100.00
2023-03-31T03:34:39.330Z,100.00
2023-03-31T03:37:05.952Z,100.00
2023-03-31T03:39:32.579Z,100.00
2023-03-31T03:41:59.103Z,100.00
2023-03-31T03:44:25.604Z,100.00
2023-03-31T03:46:52.071Z,100.00
2023-03-31T03:49:18.953Z,100.00
2023-03-31T03:51:47.029Z,100.00
2023-03-31T03:54:13.945Z,100.00
2023-03-31T03:56:40.587Z,100.00
2023-03-31T03:59:07.040Z,100.00
2023-03-31T04:01:33.543Z,100.00
2023-03-31T04:04:01.276Z,100.00
2023-03-31T04:06:27.738Z,100.00
2023-03-31T04:08:54.266Z,100.00
2023-03-31T04:11:20.825Z,100.00
2023-03-31T04:13:47.581Z,100.00
2023-03-31T04:16:14.850Z,100.00
2023-03-31T04:18:43.534Z,100.00
2023-03-31T04:21:15.758Z,100.00
2023-03-31T04:23:46.434Z,100.00
2023-03-31T04:26:18.514Z,100.00
2023-03-31T04:28:50.738Z,100.00
2023-03-31T04:31:27.002Z,100.00
2023-03-31T04:33:55.025Z,100.00
2023-03-31T04:36:22.519Z,100.00
2023-03-31T04:38:55.266Z,100.00
2023-03-31T04:41:24.436Z,100.00
2023-03-31T04:43:59.015Z,100.00
2023-03-31T04:46:26.596Z,100.00
2023-03-31T04:48:53.160Z,100.00
2023-03-31T04:51:20.590Z,100.00
2023-03-31T04:53:53.401Z,100.00
2023-03-31T04:56:21.132Z,100.00
2023-03-31T04:58:47.657Z,100.00
2023-03-31T05:01:19.978Z,100.00
2023-03-31T05:03:48.096Z,100.00
2023-03-31T05:06:16.463Z,100.00
2023-03-31T05:08:44.375Z,100.00
2023-03-31T05:11:11.429Z,100.00
2023-03-31T05:13:38.185Z,100.00
2023-03-31T05:16:14.749Z,100.00
2023-03-31T05:18:42.491Z,100.00
2023-03-31T05:21:22.909Z,100.00
2023-03-31T05:24:00.775Z,100.00
2023-03-31T05:26:29.374Z,100.00
2023-03-31T05:58:43.741Z,100.00
2023-03-31T06:06:28.005Z,100.00
2023-03-31T06:08:59.004Z,100.00
2023-03-31T06:11:28.756Z,100.00
2023-03-31T06:13:58.125Z,100.00
2023-03-31T06:16:31.234Z,100.00
2023-03-31T06:18:58.156Z,100.00
2023-03-31T06:21:25.036Z,100.00
2023-03-31T06:23:55.176Z,100.00
2023-03-31T06:26:22.792Z,100.00
2023-03-31T06:31:32.156Z,100.00
2023-03-31T06:33:58.705Z,100.00
2023-03-31T06:47:06.363Z,100.00
2023-03-31T06:52:08.598Z,100.00
2023-03-31T06:54:35.159Z,100.00
2023-03-31T06:59:43.650Z,100.00
2023-03-31T07:04:55.092Z,100.00
2023-03-31T07:18:14.213Z,100.00
2023-03-31T07:31:56.517Z,100.00
2023-03-31T07:34:23.082Z,100.00
2023-03-31T07:36:49.562Z,100.00
2023-03-31T07:39:16.029Z,100.00
2023-03-31T07:41:42.585Z,99.89
2023-03-31T07:44:09.956Z,97.98
2023-03-31T07:46:36.475Z,96.52
2023-03-31T07:49:03.380Z,95.95
2023-03-31T07:51:29.853Z,95.80
2023-03-31T07:53:56.258Z,96.66
2023-03-31T07:56:24.935Z,96.23
2023-03-31T07:58:54.440Z,96.21
2023-03-31T08:01:25.805Z,96.44
2023-03-31T08:03:54.532Z,98.13
2023-03-31T08:06:23.426Z,98.01
2023-03-31T08:14:06.497Z,98.72
2023-03-31T08:16:36.785Z,98.43
2023-03-31T08:19:03.408Z,99.00
2023-03-31T08:21:29.994Z,98.53
2023-03-31T08:23:56.508Z,99.23
2023-03-31T08:26:24.373Z,99.51
2023-03-31T14:03:29.449Z,78.67
2023-03-31T14:30:34.715Z,71.80
2023-03-31T14:33:07.546Z,69.87
2023-03-31T14:35:38.947Z,68.71
2023-03-31T14:41:16.360Z,69.96
2023-03-31T14:43:50.505Z,69.69
2023-03-31T14:46:21.834Z,68.51
2023-03-31T14:48:50.217Z,67.12
2023-03-31T14:51:28.396Z,63.38
2023-03-31T14:53:58.747Z,60.29
2023-03-31T14:56:41.524Z,58.01
2023-03-31T14:59:08.355Z,57.11
2023-03-31T15:01:39.862Z,61.19
2023-03-31T15:04:08.349Z,61.00
2023-03-31T15:06:34.827Z,61.96
2023-03-31T15:09:03.994Z,64.90
2023-03-31T15:11:36.743Z,64.34
2023-03-31T15:14:05.879Z,67.14
2023-03-31T15:16:35.501Z,66.74
2023-03-31T15:19:18.379Z,68.29
2023-03-31T15:21:45.642Z,69.40
2023-03-31T15:24:15.414Z,72.84
2023-03-31T15:26:48.039Z,77.70
2023-03-31T18:30:53.674Z,92.14
2023-03-31T18:50:15.424Z,93.06
2023-03-31T18:52:42.096Z,93.49
2023-03-31T18:59:11.586Z,94.62
2023-03-31T19:04:49.856Z,95.70
2023-03-31T19:07:17.586Z,95.86
2023-03-31T19:09:44.978Z,96.01
2023-03-31T19:12:11.871Z,96.12
2023-03-31T19:14:40.921Z,97.19
2023-03-31T19:17:07.322Z,96.85
2023-03-31T19:19:33.790Z,97.33
2023-03-31T19:22:00.430Z,97.00
2023-03-31T19:24:29.564Z,97.27
2023-03-31T19:26:56.965Z,97.36
2023-03-31T19:29:24.000Z,97.20
2023-03-31T19:31:51.906Z,96.87
2023-03-31T19:34:18.515Z,97.74
2023-03-31T19:36:45.022Z,97.81
2023-03-31T19:42:33.380Z,98.56
2023-03-31T19:44:59.914Z,98.47
2023-03-31T19:47:26.598Z,98.23
2023-03-31T19:49:53.334Z,98.85
2023-03-31T19:52:19.773Z,99.39
2023-03-31T19:54:49.320Z,99.19
2023-03-31T19:57:16.079Z,99.74
2023-03-31T19:59:42.599Z,99.76
2023-03-31T20:02:12.706Z,99.68
2023-03-31T20:04:39.964Z,99.64
2023-03-31T20:07:06.454Z,100.00
2023-03-31T20:09:41.998Z,100.00
2023-03-31T20:12:08.923Z,100.00
2023-03-31T20:14:35.440Z,100.00
2023-03-31T20:17:03.223Z,100.00
2023-03-31T20:19:29.767Z,100.00
2023-03-31T20:21:57.906Z,100.00
2023-03-31T20:24:24.764Z,100.00
2023-03-31T20:26:51.991Z,100.00
2023-03-31T20:29:22.254Z,100.00
2023-03-31T20:31:52.813Z,100.00
2023-03-31T20:34:24.564Z,100.00
2023-03-31T20:36:53.854Z,100.00
2023-03-31T20:39:23.423Z,100.00
2023-03-31T20:44:26.808Z,100.00
2023-03-31T20:46:57.134Z,100.00
2023-03-31T20:49:23.987Z,100.00
2023-03-31T20:51:51.008Z,100.00
2023-03-31T20:54:20.631Z,100.00
2023-03-31T20:56:51.459Z,100.00
2023-03-31T20:59:18.980Z,100.00
2023-03-31T21:01:52.910Z,100.00
2023-03-31T21:04:21.273Z,100.00
2023-03-31T21:06:52.187Z,100.00
2023-03-31T21:09:22.813Z,100.00
2023-03-31T21:11:55.927Z,100.00
2023-03-31T21:14:24.523Z,100.00
2023-03-31T21:16:51.154Z,100.00
2023-03-31T21:19:31.666Z,100.00
2023-03-31T21:21:58.492Z,100.00
2023-03-31T21:24:26.362Z,100.00
2023-03-31T21:26:58.305Z,100.00
2023-03-31T21:29:25.740Z,100.00
2023-03-31T21:31:52.337Z,100.00
2023-03-31T21:34:18.856Z,100.00
2023-03-31T21:36:45.312Z,100.00
2023-03-31T21:39:12.407Z,100.00
2023-03-31T21:41:40.647Z,100.00
2023-03-31T21:44:08.920Z,100.00
2023-03-31T21:49:10.928Z,100.00
2023-03-31T21:54:07.642Z,100.00
2023-03-31T22:01:52.136Z,100.00
2023-03-31T22:06:48.320Z,100.00
2023-03-31T22:09:15.261Z,100.00
2023-03-31T22:11:42.076Z,100.00
2023-03-31T22:14:08.599Z,100.00
2023-03-31T22:16:35.439Z,100.00
2023-03-31T22:19:02.714Z,100.00
2023-03-31T22:21:29.259Z,100.00
2023-03-31T22:23:58.619Z,100.00
2023-03-31T22:26:27.056Z,100.00
2023-03-31T22:28:53.582Z,100.00
2023-03-31T22:31:20.677Z,100.00
2023-03-31T22:33:47.775Z,100.00
2023-03-31T22:36:14.703Z,100.00
2023-03-31T22:38:41.922Z,100.00
2023-03-31T22:41:08.686Z,100.00
2023-03-31T22:43:35.692Z,100.00
2023-03-31T22:46:04.624Z,100.00
2023-03-31T22:48:31.246Z,100.00
2023-03-31T22:50:57.685Z,100.00
2023-03-31T22:53:24.167Z,100.00
2023-03-31T22:55:54.236Z,100.00
2023-03-31T22:58:21.520Z,100.00
2023-03-31T23:00:55.701Z,100.00
2023-03-31T23:03:22.177Z,100.00
2023-03-31T23:05:48.657Z,100.00
2023-03-31T23:08:15.255Z,100.00
2023-03-31T23:10:41.955Z,100.00
2023-03-31T23:13:08.430Z,100.00
2023-03-31T23:15:35.658Z,100.00
2023-03-31T23:18:02.153Z,100.00
2023-03-31T23:20:29.552Z,100.00
2023-03-31T23:22:58.312Z,100.00
2023-03-31T23:25:24.840Z,100.00
2023-03-31T23:27:51.280Z,100.00
2023-03-31T23:30:17.787Z,100.00
2023-03-31T23:32:44.324Z,100.00
2023-03-31T23:35:11.478Z,100.00
2023-03-31T23:37:37.975Z,100.00
2023-03-31T23:40:05.343Z,100.00
2023-03-31T23:42:32.015Z,100.00
2023-03-31T23:44:58.876Z,100.00
2023-03-31T23:47:25.536Z,100.00
2023-03-31T23:49:52.211Z,100.00
2023-03-31T23:52:18.682Z,100.00
2023-03-31T23:54:45.163Z,100.00
2023-03-31T23:57:12.694Z,100.00
2023-03-31T23:59:39.108Z,100.00
